createdAt,value
2022-10-19T00:01:13.774Z,103150.59
2022-10-19T00:03:41.496Z,103150.06
2022-10-19T00:06:25.484Z,103198.16
2022-10-19T00:08:53.824Z,103136.75
2022-10-19T00:11:23.678Z,103156.59
2022-10-19T00:13:50.610Z,103159.78
2022-10-19T00:16:18.331Z,103126.50
2022-10-19T00:18:45.818Z,103171.72
2022-10-19T00:21:15.426Z,103153.94
2022-10-19T00:23:42.498Z,103174.41
2022-10-19T00:26:09.806Z,103113.81
2022-10-19T00:28:36.737Z,103119.69
2022-10-19T00:31:05.782Z,103117.00
2022-10-19T00:33:35.276Z,103130.91
2022-10-19T00:36:02.643Z,103125.88
2022-10-19T00:38:29.278Z,103148.09
2022-10-19T00:40:56.005Z,103151.25
2022-10-19T00:43:30.200Z,103174.75
2022-10-19T00:45:56.959Z,103146.28
2022-10-19T00:48:29.006Z,103164.03
2022-10-19T00:50:58.430Z,103165.47
2022-10-19T00:53:27.417Z,103167.41
2022-10-19T00:55:54.793Z,103182.50
2022-10-19T00:58:21.536Z,103176.41
2022-10-19T01:00:48.241Z,103161.16
2022-10-19T01:03:15.116Z,103150.28
2022-10-19T01:05:42.113Z,103175.28
2022-10-19T01:08:10.247Z,103169.94
2022-10-19T01:11:04.717Z,103156.91
2022-10-19T01:14:08.557Z,103175.38
2022-10-19T01:17:07.552Z,103171.88
2022-10-19T01:19:52.325Z,103169.44
2022-10-19T01:22:56.833Z,103166.75
2022-10-19T01:25:36.201Z,103146.38
2022-10-19T01:28:40.182Z,103168.88
2022-10-19T01:31:32.622Z,103163.75
2022-10-19T01:34:03.073Z,103139.53
2022-10-19T01:36:44.489Z,103148.28
2022-10-19T01:39:33.558Z,103163.00
2022-10-19T01:42:24.906Z,103152.91
2022-10-19T01:45:13.636Z,103161.78
2022-10-19T01:47:51.899Z,103165.09
2022-10-19T01:50:31.546Z,103134.88
2022-10-19T01:52:59.342Z,103134.88
2022-10-19T01:55:27.723Z,103135.47
2022-10-19T01:57:59.528Z,103134.63
2022-10-19T02:00:28.269Z,103130.50
2022-10-19T02:02:56.067Z,103147.88
2022-10-19T02:05:30.716Z,103149.91
2022-10-19T02:08:05.919Z,103151.53
2022-10-19T02:10:37.255Z,103146.66
2022-10-19T02:13:04.958Z,103135.53
2022-10-19T02:15:35.691Z,103130.31
2022-10-19T02:18:03.544Z,103124.97
2022-10-19T02:20:30.588Z,103103.53
2022-10-19T02:22:57.200Z,103077.19
2022-10-19T02:25:27.078Z,103138.00
2022-10-19T02:27:53.729Z,103134.69
2022-10-19T02:30:22.440Z,103105.81
2022-10-19T02:32:49.991Z,103096.41
2022-10-19T02:35:17.124Z,103094.81
2022-10-19T02:37:44.250Z,103099.81
2022-10-19T02:40:11.633Z,103127.03
2022-10-19T02:43:01.802Z,103100.78
2022-10-19T02:45:32.003Z,103092.50
2022-10-19T02:48:02.927Z,103069.34
2022-10-19T02:50:29.661Z,103104.53
2022-10-19T02:52:59.083Z,103129.16
2022-10-19T02:55:25.807Z,103126.59
2022-10-19T02:57:52.321Z,103127.56
2022-10-19T03:00:18.995Z,103123.19
2022-10-19T03:02:59.837Z,103082.03
2022-10-19T03:05:26.472Z,103100.69
2022-10-19T03:07:53.298Z,103104.94
2022-10-19T03:10:22.183Z,103077.47
2022-10-19T03:12:48.700Z,103112.22
2022-10-19T03:15:17.155Z,103080.75
2022-10-19T03:17:43.976Z,103068.16
2022-10-19T03:20:11.448Z,103109.13
2022-10-19T03:22:38.362Z,103084.84
2022-10-19T03:25:05.386Z,103089.88
2022-10-19T03:27:32.327Z,103090.47
2022-10-19T03:29:59.100Z,103081.59
2022-10-19T03:32:25.647Z,103057.81
2022-10-19T03:34:52.331Z,103081.00
2022-10-19T03:37:18.998Z,103054.84
2022-10-19T03:39:47.287Z,103100.72
2022-10-19T03:42:13.842Z,103040.13
2022-10-19T03:44:43.255Z,103059.00
2022-10-19T03:47:09.749Z,103025.63
2022-10-19T03:49:38.112Z,103030.94
2022-10-19T03:52:06.824Z,103097.72
2022-10-19T03:54:33.350Z,103049.19
2022-10-19T03:57:00.101Z,103041.84
2022-10-19T03:59:26.788Z,103104.06
2022-10-19T04:01:53.477Z,103076.63
2022-10-19T04:04:20.775Z,103101.50
2022-10-19T04:06:50.162Z,103058.91
2022-10-19T04:09:18.937Z,103085.25
2022-10-19T04:11:46.951Z,103075.22
2022-10-19T04:14:22.787Z,103045.59
2022-10-19T04:17:00.214Z,103065.22
2022-10-19T04:19:26.870Z,103061.16
2022-10-19T04:21:53.480Z,103082.59
2022-10-19T04:24:20.088Z,103097.22
2022-10-19T04:26:53.375Z,103081.75
2022-10-19T04:29:23.718Z,103063.06
2022-10-19T04:31:53.531Z,103096.03
2022-10-19T04:34:20.680Z,103064.56
2022-10-19T04:36:47.227Z,103058.81
2022-10-19T04:39:14.351Z,103049.53
2022-10-19T04:41:41.105Z,103048.69
2022-10-19T04:44:08.074Z,103057.34
2022-10-19T04:46:36.651Z,103030.13
2022-10-19T04:49:04.439Z,103045.72
2022-10-19T04:51:31.030Z,103052.41
2022-10-19T04:53:59.668Z,103104.69
2022-10-19T04:56:27.609Z,103106.84
2022-10-19T04:58:56.510Z,103059.16
2022-10-19T05:01:24.398Z,103047.44
2022-10-19T05:06:24.270Z,103072.69
2022-10-19T05:08:51.903Z,103099.91
2022-10-19T05:11:19.356Z,103075.16
2022-10-19T05:13:46.258Z,103058.31
2022-10-19T05:16:16.005Z,103096.91
2022-10-19T05:18:42.878Z,103056.59
2022-10-19T05:21:14.206Z,103060.63
2022-10-19T05:23:43.403Z,103079.53
2022-10-19T05:26:11.619Z,103076.00
2022-10-19T05:28:38.923Z,103083.69
2022-10-19T05:31:07.810Z,103025.66
2022-10-19T05:33:34.858Z,103083.56
2022-10-19T05:36:15.709Z,103051.16
2022-10-19T05:38:43.492Z,103089.75
2022-10-19T05:41:10.138Z,103070.13
2022-10-19T05:43:36.938Z,103077.34
2022-10-19T05:46:13.206Z,103017.75
2022-10-19T05:48:43.407Z,103005.84
2022-10-19T05:51:16.584Z,103022.25
2022-10-19T05:53:43.523Z,103007.75
2022-10-19T05:56:14.832Z,103017.97
2022-10-19T05:58:41.481Z,103029.94
2022-10-19T06:01:09.643Z,103029.19
2022-10-19T06:03:36.679Z,103037.47
2022-10-19T06:06:08.319Z,103059.78
2022-10-19T06:08:35.470Z,103088.78
2022-10-19T06:11:18.629Z,103106.31
2022-10-19T06:13:47.170Z,103101.91
2022-10-19T06:16:16.101Z,103100.22
2022-10-19T06:18:43.641Z,103078.56
2022-10-19T06:21:15.621Z,103085.63
2022-10-19T06:26:14.214Z,103038.78
2022-10-19T06:28:46.271Z,103070.97
2022-10-19T06:31:14.705Z,103099.34
2022-10-19T06:33:43.880Z,103046.22
2022-10-19T06:36:15.684Z,103103.72
2022-10-19T06:38:42.676Z,103075.66
2022-10-19T06:41:11.210Z,103097.84
2022-10-19T06:43:38.092Z,103047.31
2022-10-19T06:46:12.785Z,103095.09
2022-10-19T06:48:41.567Z,103071.75
2022-10-19T06:51:08.218Z,103085.28
2022-10-19T06:53:36.314Z,103105.16
2022-10-19T06:56:05.229Z,103102.59
2022-10-19T06:58:36.349Z,103065.25
2022-10-19T07:01:03.459Z,103037.09
2022-10-19T07:03:30.285Z,103090.63
2022-10-19T07:05:59.475Z,103050.72
2022-10-19T07:08:27.650Z,103074.53
2022-10-19T07:10:56.712Z,103026.53
2022-10-19T07:13:23.948Z,103034.22
2022-10-19T07:15:56.434Z,103073.97
2022-10-19T07:18:33.196Z,103014.25
2022-10-19T07:21:28.192Z,103012.66
2022-10-19T07:23:59.380Z,103049.66
2022-10-19T07:26:40.830Z,103035.47
2022-10-19T07:29:21.067Z,103004.00
2022-10-19T07:31:50.552Z,103021.72
2022-10-19T07:34:19.110Z,103088.00
2022-10-19T07:36:53.221Z,103089.63
2022-10-19T07:39:19.963Z,103024.47
2022-10-19T07:41:47.302Z,103025.97
2022-10-19T07:44:24.456Z,103044.16
2022-10-19T07:46:53.060Z,103078.81
2022-10-19T07:49:43.303Z,103050.41
2022-10-19T07:52:10.007Z,103037.44
2022-10-19T07:54:38.911Z,103050.78
2022-10-19T07:57:13.633Z,103017.25
2022-10-19T07:59:42.616Z,103024.59
2022-10-19T08:02:17.917Z,103044.53
2022-10-19T08:05:02.129Z,103027.03
2022-10-19T08:07:34.092Z,103015.47
2022-10-19T08:10:02.290Z,103060.03
2022-10-19T08:12:37.310Z,103019.53
2022-10-19T08:15:32.770Z,103027.81
2022-10-19T08:18:00.825Z,103062.91
2022-10-19T08:20:33.447Z,103036.63
2022-10-19T08:23:07.983Z,103040.03
2022-10-19T08:26:00.893Z,103025.41
2022-10-19T08:28:42.383Z,103033.50
2022-10-19T08:31:13.181Z,103027.31
2022-10-19T08:33:55.417Z,103054.75
2022-10-19T08:36:24.950Z,103037.75
2022-10-19T08:39:09.917Z,103053.25
2022-10-19T08:42:04.667Z,103078.59
2022-10-19T08:44:52.922Z,103049.50
2022-10-19T08:47:31.746Z,103082.59
2022-10-19T08:50:01.351Z,103005.78
2022-10-19T08:52:46.507Z,103065.56
2022-10-19T08:55:29.032Z,103011.28
2022-10-19T08:58:25.242Z,103073.25
2022-10-19T09:01:31.613Z,103029.56
2022-10-19T09:04:24.525Z,103031.41
2022-10-19T09:07:15.950Z,103055.91
2022-10-19T09:09:51.486Z,103002.00
2022-10-19T09:12:35.216Z,102988.69
2022-10-19T09:15:21.794Z,102997.72
2022-10-19T09:17:50.008Z,102993.22
2022-10-19T09:20:21.489Z,103019.13
2022-10-19T09:23:02.142Z,102974.84
2022-10-19T09:25:30.793Z,103020.97
2022-10-19T09:28:19.764Z,102999.66
2022-10-19T09:30:52.214Z,103002.00
2022-10-19T09:33:29.088Z,103019.63
2022-10-19T09:36:00.559Z,102967.06
2022-10-19T09:38:31.177Z,102990.06
2022-10-19T09:41:01.493Z,102951.38
2022-10-19T09:43:30.878Z,102967.81
2022-10-19T09:46:13.869Z,102980.47
2022-10-19T09:48:56.015Z,102992.28
2022-10-19T09:51:23.707Z,102974.41
2022-10-19T09:53:54.026Z,102965.53
2022-10-19T09:56:33.645Z,102970.97
2022-10-19T09:59:00.313Z,102993.25
2022-10-19T10:01:41.457Z,102979.84
2022-10-19T10:04:29.998Z,102966.94
2022-10-19T10:07:01.759Z,102929.13
2022-10-19T10:09:38.033Z,102949.91
2022-10-19T10:12:08.623Z,102942.09
2022-10-19T10:14:42.446Z,102948.91
2022-10-19T10:17:29.485Z,102990.22
2022-10-19T10:19:59.067Z,103009.78
2022-10-19T10:22:31.906Z,102974.97
2022-10-19T10:25:01.655Z,103006.16
2022-10-19T10:27:43.052Z,102988.50
2022-10-19T10:30:24.514Z,102965.47
2022-10-19T10:32:57.978Z,103001.16
2022-10-19T10:35:42.917Z,102955.75
2022-10-19T10:38:20.838Z,102967.31
2022-10-19T10:41:12.075Z,102969.03
2022-10-19T10:46:26.800Z,102979.84
2022-10-19T10:49:05.863Z,102959.28
2022-10-19T10:51:52.906Z,102957.38
2022-10-19T10:54:24.500Z,102995.31
2022-10-19T10:57:20.026Z,102993.47
2022-10-19T11:00:12.446Z,102981.81
2022-10-19T11:02:41.818Z,102978.16
2022-10-19T11:05:23.822Z,102917.47
2022-10-19T11:08:01.239Z,102892.78
2022-10-19T11:10:33.519Z,102918.00
2022-10-19T11:13:15.238Z,102897.44
2022-10-19T11:15:56.176Z,102899.75
2022-10-19T11:18:28.383Z,102905.00
2022-10-19T11:21:06.223Z,102892.34
2022-10-19T11:24:05.172Z,102926.13
2022-10-19T11:27:16.774Z,102863.66
2022-10-19T11:30:03.437Z,102910.09
2022-10-19T11:32:50.188Z,102893.19
2022-10-19T11:35:40.553Z,102890.41
2022-10-19T11:38:29.859Z,102905.59
2022-10-19T11:41:17.730Z,102866.34
2022-10-19T11:44:24.500Z,102809.56
2022-10-19T11:46:51.117Z,102874.97
2022-10-19T11:49:35.388Z,102844.22
2022-10-19T11:52:19.263Z,102800.22
2022-10-19T11:55:20.039Z,102815.53
2022-10-19T11:58:41.245Z,102850.50
2022-10-19T12:01:54.408Z,102844.16
2022-10-19T12:04:24.057Z,102836.25
2022-10-19T12:07:04.962Z,102834.06
2022-10-19T12:10:04.474Z,102831.41
2022-10-19T12:12:41.051Z,102773.72
2022-10-19T12:15:32.001Z,102816.91
2022-10-19T12:18:15.544Z,102752.81
2022-10-19T12:20:48.827Z,102799.28
2022-10-19T12:23:34.239Z,102800.75
2022-10-19T12:26:04.262Z,102797.09
2022-10-19T12:28:34.676Z,102752.63
2022-10-19T12:31:02.970Z,102719.00
2022-10-19T12:34:07.197Z,102777.13
2022-10-19T12:37:12.969Z,102773.59
2022-10-19T12:39:51.549Z,102763.63
2022-10-19T12:42:35.783Z,102738.84
2022-10-19T12:45:27.513Z,102765.31
2022-10-19T12:48:10.886Z,102758.13
2022-10-19T12:50:49.699Z,102756.31
2022-10-19T12:53:28.801Z,102747.81
2022-10-19T12:56:21.246Z,102738.44
2022-10-19T12:58:51.158Z,102734.91
2022-10-19T13:01:28.753Z,102738.31
2022-10-19T13:04:25.020Z,102734.41
2022-10-19T13:07:02.111Z,102716.03
2022-10-19T13:09:37.766Z,102718.06
2022-10-19T13:12:16.274Z,102722.56
2022-10-19T13:14:54.333Z,102706.63
2022-10-19T13:17:49.228Z,102700.06
2022-10-19T13:20:15.725Z,102698.09
2022-10-19T13:22:42.190Z,102690.91
2022-10-19T13:25:24.173Z,102688.63
2022-10-19T13:27:52.251Z,102673.81
2022-10-19T13:30:38.242Z,102690.66
2022-10-19T13:33:29.343Z,102689.81
2022-10-19T13:35:58.918Z,102678.13
2022-10-19T13:38:39.597Z,102672.50
2022-10-19T13:41:16.919Z,102636.75
2022-10-19T13:44:02.339Z,102677.75
2022-10-19T13:46:29.101Z,102672.28
2022-10-19T13:53:05.390Z,102670.31
2022-10-19T13:56:25.521Z,102627.16
2022-10-19T13:59:22.377Z,102672.00
2022-10-19T14:02:17.007Z,102667.38
2022-10-19T14:08:33.167Z,102663.59
2022-10-19T14:11:03.816Z,102595.59
2022-10-19T14:13:31.173Z,102631.06
2022-10-19T14:16:07.506Z,102597.84
2022-10-19T14:21:47.570Z,102595.88
2022-10-19T14:27:08.019Z,102641.00
2022-10-19T14:29:52.171Z,102623.03
2022-10-19T14:38:54.242Z,102605.78
2022-10-19T14:41:42.040Z,102623.88
2022-10-19T14:44:34.850Z,102670.13
2022-10-19T14:47:18.604Z,102610.63
2022-10-19T14:49:54.713Z,102596.53
2022-10-19T14:52:47.214Z,102586.06
2022-10-19T14:55:41.519Z,102594.56
2022-10-19T14:58:50.772Z,102591.88
2022-10-19T15:01:22.775Z,102624.72
2022-10-19T15:03:50.467Z,102599.16
2022-10-19T15:06:26.090Z,102581.78
2022-10-19T15:09:19.731Z,102633.09
2022-10-19T15:12:17.552Z,102565.84
2022-10-19T15:14:45.815Z,102567.13
2022-10-19T15:17:29.102Z,102634.84
2022-10-19T15:20:00.301Z,102584.44
2022-10-19T15:22:33.074Z,102614.97
2022-10-19T15:25:01.165Z,102613.16
2022-10-19T15:27:47.698Z,102569.78
2022-10-19T15:30:20.046Z,102606.81
2022-10-19T15:32:57.410Z,102554.72
2022-10-19T15:35:34.098Z,102589.03
2022-10-19T15:38:04.731Z,102565.03
2022-10-19T15:41:15.404Z,102543.03
2022-10-19T15:43:54.086Z,102593.16
2022-10-19T15:46:35.848Z,102539.50
2022-10-19T15:49:17.612Z,102577.06
2022-10-19T15:52:02.037Z,102576.22
2022-10-19T15:54:56.499Z,102553.78
2022-10-19T15:58:21.477Z,102559.16
2022-10-19T16:01:29.246Z,102495.50
2022-10-19T16:04:27.866Z,102526.25
2022-10-19T16:06:54.508Z,102482.66
2022-10-19T16:09:23.542Z,102542.13
2022-10-19T16:12:12.333Z,102543.50
2022-10-19T16:14:39.154Z,102542.66
2022-10-19T16:17:16.166Z,102466.75
2022-10-19T16:19:43.796Z,102489.47
2022-10-19T16:22:11.512Z,102484.00
2022-10-19T16:24:38.048Z,102510.38
2022-10-19T16:27:05.568Z,102514.63
2022-10-19T16:29:33.229Z,102482.28
2022-10-19T16:31:59.687Z,102527.16
2022-10-19T16:34:26.381Z,102489.09
2022-10-19T16:36:53.836Z,102521.69
2022-10-19T16:39:20.405Z,102481.19
2022-10-19T16:41:46.868Z,102506.31
2022-10-19T16:44:13.603Z,102490.19
2022-10-19T16:46:40.155Z,102505.03
2022-10-19T16:49:06.679Z,102527.44
2022-10-19T16:51:36.176Z,102498.22
2022-10-19T16:54:04.132Z,102459.44
2022-10-19T16:56:31.835Z,102479.03
2022-10-19T16:59:04.734Z,102487.06
2022-10-19T17:01:35.514Z,102507.97
2022-10-19T17:04:02.244Z,102479.47
2022-10-19T17:06:28.972Z,102500.50
2022-10-19T17:09:36.777Z,102439.00
2022-10-19T17:11:51.686Z,102483.59
2022-10-19T17:14:18.393Z,102416.47
2022-10-19T17:16:45.070Z,102422.53
2022-10-19T17:19:14.195Z,102418.03
2022-10-19T17:21:42.803Z,102476.81
2022-10-19T17:24:18.646Z,102473.41
2022-10-19T17:26:46.837Z,102443.81
2022-10-19T17:29:13.873Z,102472.31
2022-10-19T17:31:42.047Z,102449.72
2022-10-19T17:34:09.360Z,102473.72
2022-10-19T17:39:12.859Z,102480.06
2022-10-19T17:41:39.557Z,102477.91
2022-10-19T17:44:06.479Z,102490.06
2022-10-19T17:46:35.240Z,102469.63
2022-10-19T17:49:22.151Z,102473.69
2022-10-19T17:51:48.763Z,102453.38
2022-10-19T17:54:15.472Z,102438.84
2022-10-19T17:56:45.238Z,102456.91
2022-10-19T17:59:12.200Z,102476.09
2022-10-19T18:01:38.996Z,102438.84
2022-10-19T18:04:21.775Z,102409.19
2022-10-19T18:06:48.392Z,102434.34
2022-10-19T18:09:26.918Z,102443.22
2022-10-19T18:11:53.618Z,102437.44
2022-10-19T18:14:20.223Z,102432.75
2022-10-19T18:16:52.173Z,102457.16
2022-10-19T18:19:19.018Z,102484.69
2022-10-19T18:21:47.071Z,102448.59
2022-10-19T18:24:19.536Z,102465.19
2022-10-19T18:26:47.191Z,102479.16
2022-10-19T18:29:23.796Z,102423.81
2022-10-19T18:32:02.379Z,102469.56
2022-10-19T18:34:29.315Z,102472.53
2022-10-19T18:36:56.137Z,102480.28
2022-10-19T18:39:24.497Z,102453.31
2022-10-19T18:41:54.749Z,102455.59
2022-10-19T18:44:27.151Z,102436.81
2022-10-19T18:46:55.632Z,102409.03
2022-10-19T18:49:27.564Z,102419.03
2022-10-19T18:51:56.081Z,102437.25
2022-10-19T18:54:23.842Z,102417.94
2022-10-19T18:56:50.476Z,102400.75
2022-10-19T18:59:30.583Z,102391.03
2022-10-19T19:01:57.266Z,102356.91
2022-10-19T19:04:31.752Z,102401.34
2022-10-19T19:07:14.229Z,102350.84
2022-10-19T19:09:43.806Z,102367.19
2022-10-19T19:12:12.945Z,102365.06
2022-10-19T19:14:41.367Z,102345.34
2022-10-19T19:17:08.438Z,102374.53
2022-10-19T19:19:47.035Z,102343.06
2022-10-19T19:22:25.398Z,102355.66
2022-10-19T19:24:54.431Z,102380.03
2022-10-19T19:27:42.825Z,102353.66
2022-10-19T19:30:17.861Z,102323.81
2022-10-19T19:32:44.462Z,102349.31
2022-10-19T19:35:14.430Z,102342.16
2022-10-19T19:37:43.271Z,102298.88
2022-10-19T19:40:10.435Z,102362.00
2022-10-19T19:42:37.013Z,102322.97
2022-10-19T19:45:03.876Z,102362.72
2022-10-19T19:47:30.396Z,102346.91
2022-10-19T19:49:56.973Z,102353.97
2022-10-19T19:52:23.968Z,102321.00
2022-10-19T19:54:50.597Z,102293.69
2022-10-19T19:57:17.957Z,102313.41
2022-10-19T19:59:45.052Z,102299.03
2022-10-19T20:02:13.279Z,63233.56
2022-10-19T20:04:39.930Z,63233.56
2022-10-19T20:07:06.498Z,63233.56
2022-10-19T20:09:33.305Z,63233.56
2022-10-19T20:11:59.911Z,63233.56
2022-10-19T20:14:29.939Z,63233.56
2022-10-19T20:16:57.151Z,63233.56
2022-10-19T20:19:23.900Z,63233.56
2022-10-19T20:21:50.514Z,63233.56
2022-10-19T20:24:17.222Z,63233.56
2022-10-19T20:26:43.825Z,63233.56
2022-10-19T20:29:13.458Z,63233.56
2022-10-19T20:31:41.247Z,63233.56
2022-10-19T20:34:13.784Z,63233.56
2022-10-19T20:36:41.992Z,63233.56
2022-10-19T20:39:09.400Z,63233.56
2022-10-19T20:41:36.916Z,63233.56
2022-10-19T20:44:03.464Z,63233.56
2022-10-19T20:46:30.496Z,63233.56
2022-10-19T20:48:59.914Z,63233.56
2022-10-19T20:51:32.756Z,63233.56
2022-10-19T20:54:01.567Z,63233.56
2022-10-19T20:56:32.671Z,63233.56
2022-10-19T20:59:05.467Z,63233.56
2022-10-19T21:01:37.611Z,63233.56
2022-10-19T21:04:13.248Z,63233.56
2022-10-19T21:06:44.437Z,63233.56
2022-10-19T21:09:15.398Z,63233.56
2022-10-19T21:11:43.466Z,63233.56
2022-10-19T21:14:20.274Z,63233.56
2022-10-19T21:16:50.671Z,63233.56
2022-10-19T21:19:19.669Z,63233.56
2022-10-19T21:21:52.600Z,63233.56
2022-10-19T21:24:22.557Z,63233.56
2022-10-19T21:26:49.340Z,63233.56
2022-10-19T21:29:17.212Z,63233.56
2022-10-19T21:31:48.764Z,63233.56
2022-10-19T21:34:19.221Z,63233.56
2022-10-19T21:36:45.939Z,63233.56
2022-10-19T21:39:12.805Z,63233.56
2022-10-19T21:41:41.604Z,63233.56
2022-10-19T21:44:12.397Z,63233.56
2022-10-19T21:46:39.177Z,63233.56
2022-10-19T21:49:05.866Z,63233.56
2022-10-19T21:51:37.715Z,63233.56
2022-10-19T21:54:06.799Z,63233.56
2022-10-19T21:56:34.092Z,63233.56
2022-10-19T21:59:01.126Z,63233.56
2022-10-19T22:01:30.116Z,63233.56
2022-10-19T22:03:57.896Z,63233.56
2022-10-19T22:06:29.166Z,63233.56
2022-10-19T22:09:02.662Z,63233.56
2022-10-19T22:11:29.529Z,63233.56
2022-10-19T22:13:59.116Z,63233.56
2022-10-19T22:16:26.839Z,63233.56
2022-10-19T22:18:53.755Z,63233.56
2022-10-19T22:21:27.123Z,63233.56
2022-10-19T22:23:59.006Z,63233.56
2022-10-19T22:26:34.575Z,63233.56
2022-10-19T22:29:02.174Z,63233.56
2022-10-19T22:31:30.326Z,63233.56
2022-10-19T22:33:57.806Z,63233.56
2022-10-19T22:36:24.439Z,63233.56
2022-10-19T22:38:51.113Z,63233.56
2022-10-19T22:42:14.199Z,63233.56
2022-10-19T22:44:43.252Z,63233.56
2022-10-19T22:47:09.765Z,63233.56
2022-10-19T22:49:36.339Z,63233.56
2022-10-19T22:52:02.886Z,63233.56
2022-10-19T22:54:29.628Z,63233.56
2022-10-19T22:56:56.268Z,63233.56
2022-10-19T22:59:22.920Z,63233.56
2022-10-19T23:01:51.596Z,63233.56
2022-10-19T23:04:18.189Z,63233.56
2022-10-19T23:06:45.015Z,63233.56
2022-10-19T23:09:11.576Z,63233.56
2022-10-19T23:11:38.179Z,63233.56
2022-10-19T23:14:04.778Z,63233.56
2022-10-19T23:16:31.566Z,63233.56
2022-10-19T23:18:58.382Z,63233.56
2022-10-19T23:21:24.957Z,63233.56
2022-10-19T23:23:51.624Z,63233.56
2022-10-19T23:26:20.548Z,63233.56
2022-10-19T23:28:48.953Z,63233.56
2022-10-19T23:31:24.456Z,63233.56
2022-10-19T23:33:52.102Z,63233.56
2022-10-19T23:36:25.651Z,63233.56
2022-10-19T23:38:53.366Z,63233.56
2022-10-19T23:41:20.923Z,63233.56
2022-10-19T23:43:48.037Z,63233.56
2022-10-19T23:46:15.045Z,63233.56
2022-10-19T23:48:42.254Z,63233.56
2022-10-19T23:51:13.540Z,63233.56
2022-10-19T23:53:42.636Z,63233.56
2022-10-19T23:56:22.336Z,63233.56
2022-10-19T23:58:49.021Z,63233.56
